Time;durP1;ratioP1;P1;durP2;ratioP2;P2;SDS_P1;SDS_P2;PMS_P1;PMS_P2;Temp;Humidity;BMP_temperature;BMP_pressure;BME280_temperature;BME280_humidity;BME280_pressure;Samples;Min_cycle;Max_cycle;Signal;HPM_P1;HPM_P2
2022/03/24 00:02:11;;;;;;;12.20;7.93;;;;;;;;;;5050586;28;20245;-88
2022/03/24 00:04:38;;;;;;;11.57;7.90;;;;;;;;;;5044776;28;20246;-88
2022/03/24 00:07:06;;;;;;;12.37;8.20;;;;;;;;;;5066738;28;20647;-88
2022/03/24 00:09:35;;;;;;;10.83;8.30;;;;;;;;;;5067852;28;20201;-88
2022/03/24 00:12:02;;;;;;;10.97;6.97;;;;;;;;;;5051402;28;20735;-88
2022/03/24 00:14:29;;;;;;;9.47;7.40;;;;;;;;;;5057842;28;20229;-89
2022/03/24 00:16:56;;;;;;;13.33;8.20;;;;;;;;;;5047402;28;20217;-88
2022/03/24 00:19:24;;;;;;;11.70;8.33;;;;;;;;;;5047731;28;20241;-89
2022/03/24 00:21:51;;;;;;;11.83;8.30;;;;;;;;;;5040796;28;20352;-89
2022/03/24 00:24:19;;;;;;;10.97;7.93;;;;;;;;;;5059684;28;20229;-89
2022/03/24 00:26:48;;;;;;;11.40;8.23;;;;;;;;;;5050832;28;20210;-88
2022/03/24 00:29:15;;;;;;;11.57;7.07;;;;;;;;;;5044133;28;20241;-89
2022/03/24 00:31:42;;;;;;;10.03;7.10;;;;;;;;;;5050302;28;20296;-89
2022/03/24 00:34:10;;;;;;;12.37;7.60;;;;;;;;;;5067110;28;20270;-89
2022/03/24 00:36:37;;;;;;;9.60;7.77;;;;;;;;;;5060006;28;20243;-88
2022/03/24 00:39:05;;;;;;;8.37;6.70;;;;;;;;;;5040238;28;20233;-89
2022/03/24 00:41:32;;;;;;;7.97;6.60;;;;;;;;;;5058582;28;20236;-87
2022/03/24 00:44:02;;;;;;;10.63;7.40;;;;;;;;;;5066857;28;20263;-88
2022/03/24 00:46:31;;;;;;;13.00;8.37;;;;;;;;;;5007389;28;1151336;-89
2022/03/24 00:48:59;;;;;;;11.60;7.80;;;;;;;;;;5057324;28;20215;-88
2022/03/24 00:51:26;;;;;;;10.90;7.20;;;;;;;;;;5066158;28;20223;-88
2022/03/24 00:53:53;;;;;;;11.27;8.20;;;;;;;;;;5071322;28;20221;-89
2022/03/24 00:56:21;;;;;;;10.80;7.30;;;;;;;;;;5041232;28;20202;-88
2022/03/24 00:58:49;;;;;;;13.07;7.77;;;;;;;;;;5057218;28;20222;-89
2022/03/24 01:01:17;;;;;;;10.80;7.87;;;;;;;;;;5052148;28;20233;-89
2022/03/24 01:03:45;;;;;;;11.53;7.23;;;;;;;;;;5049397;28;20230;-87
2022/03/24 01:06:17;;;;;;;9.83;7.13;;;;;;;;;;5039937;28;20613;-89
2022/03/24 01:08:44;;;;;;;11.00;7.87;;;;;;;;;;5048249;28;20263;-89
2022/03/24 01:11:12;;;;;;;11.27;8.30;;;;;;;;;;5031930;28;20234;-89
2022/03/24 01:13:40;;;;;;;12.70;8.13;;;;;;;;;;5034095;28;20291;-89
2022/03/24 01:16:09;;;;;;;12.73;8.13;;;;;;;;;;5055053;28;20206;-89
2022/03/24 01:18:39;;;;;;;10.03;7.43;;;;;;;;;;5059427;28;20309;-89
2022/03/24 01:21:07;;;;;;;9.73;7.40;;;;;;;;;;5050663;28;20202;-87
2022/03/24 01:23:34;;;;;;;11.50;7.50;;;;;;;;;;5050142;28;20312;-88
2022/03/24 01:26:05;;;;;;;8.53;7.27;;;;;;;;;;5069188;28;20297;-89
2022/03/24 01:28:32;;;;;;;8.90;6.83;;;;;;;;;;5071596;28;20272;-89
2022/03/24 01:31:00;;;;;;;12.90;8.27;;;;;;;;;;5051322;28;20215;-88
2022/03/24 01:33:27;;;;;;;10.53;7.47;;;;;;;;;;5050547;28;20206;-89
2022/03/24 01:35:55;;;;;;;8.53;6.80;;;;;;;;;;5069130;28;20243;-89
2022/03/24 01:38:23;;;;;;;8.90;6.57;;;;;;;;;;5071130;28;20739;-89
2022/03/24 01:40:51;;;;;;;10.87;7.63;;;;;;;;;;5053706;28;20212;-89
2022/03/24 01:43:19;;;;;;;9.33;7.30;;;;;;;;;;5048390;28;20206;-88
2022/03/24 01:45:46;;;;;;;11.47;8.20;;;;;;;;;;5054311;28;20220;-89
2022/03/24 01:48:14;;;;;;;11.37;7.17;;;;;;;;;;5047789;28;20221;-89
2022/03/24 01:50:42;;;;;;;12.27;7.47;;;;;;;;;;5040195;28;20348;-89
2022/03/24 01:53:12;;;;;;;10.20;7.67;;;;;;;;;;5070686;28;20663;-89
2022/03/24 01:55:39;;;;;;;10.10;7.67;;;;;;;;;;5071087;28;20206;-89
2022/03/24 01:58:06;;;;;;;8.17;6.57;;;;;;;;;;5049776;28;20233;-89
2022/03/24 02:00:34;;;;;;;10.67;7.60;;;;;;;;;;5063714;28;20209;-89
2022/03/24 02:03:04;;;;;;;8.60;6.73;;;;;;;;;;5045460;28;20234;-88
2022/03/24 02:05:32;;;;;;;12.57;7.13;;;;;;;;;;5049572;28;20218;-89
2022/03/24 02:08:02;;;;;;;12.10;7.67;;;;;;;;;;5050934;28;20328;-88
2022/03/24 02:10:31;;;;;;;8.53;6.57;;;;;;;;;;5045752;28;20214;-89
2022/03/24 02:12:58;;;;;;;9.40;7.47;;;;;;;;;;5050109;28;20278;-89
2022/03/24 02:15:25;;;;;;;10.73;8.13;;;;;;;;;;5064418;28;20230;-88
2022/03/24 02:17:53;;;;;;;10.10;7.90;;;;;;;;;;5050400;28;20275;-89
2022/03/24 02:20:20;;;;;;;10.00;7.30;;;;;;;;;;5046056;28;20212;-89
2022/03/24 02:22:49;;;;;;;11.57;8.03;;;;;;;;;;5058264;28;20206;-89
2022/03/24 02:25:16;;;;;;;9.67;7.97;;;;;;;;;;5050090;28;20704;-89
2022/03/24 02:27:46;;;;;;;10.57;7.73;;;;;;;;;;5045943;28;20206;-89
2022/03/24 02:30:14;;;;;;;11.53;7.80;;;;;;;;;;5052836;28;20209;-89
2022/03/24 02:32:42;;;;;;;9.07;7.03;;;;;;;;;;5061967;28;20198;-88
2022/03/24 02:35:09;;;;;;;9.10;7.27;;;;;;;;;;5050376;28;21016;-89
2022/03/24 02:37:37;;;;;;;11.77;7.90;;;;;;;;;;5038131;28;20637;-88
2022/03/24 02:40:06;;;;;;;11.13;7.83;;;;;;;;;;5056759;28;20202;-87
2022/03/24 02:42:33;;;;;;;13.00;8.90;;;;;;;;;;5050162;28;20654;-89
2022/03/24 02:45:08;;;;;;;11.30;7.57;;;;;;;;;;5046003;28;20241;-88
2022/03/24 02:47:35;;;;;;;11.87;7.90;;;;;;;;;;5043391;28;20210;-88
2022/03/24 02:50:02;;;;;;;12.00;7.87;;;;;;;;;;5068672;28;20224;-89
2022/03/24 02:52:29;;;;;;;9.80;7.23;;;;;;;;;;5063717;28;20703;-89
2022/03/24 02:54:57;;;;;;;11.27;8.20;;;;;;;;;;5050312;28;20227;-89
2022/03/24 02:57:25;;;;;;;10.50;7.60;;;;;;;;;;5064263;28;20206;-89
2022/03/24 02:59:52;;;;;;;10.00;7.67;;;;;;;;;;5049752;28;20240;-88
2022/03/24 03:02:21;;;;;;;11.60;8.73;;;;;;;;;;5045126;28;20229;-88
2022/03/24 03:04:53;;;;;;;15.70;8.50;;;;;;;;;;5034179;28;20230;-89
2022/03/24 03:07:21;;;;;;;8.63;7.73;;;;;;;;;;5061006;28;20236;-88
2022/03/24 03:09:48;;;;;;;12.33;8.63;;;;;;;;;;5069101;28;20291;-88
2022/03/24 03:12:16;;;;;;;13.03;8.47;;;;;;;;;;5047161;28;20234;-89
2022/03/24 03:14:46;;;;;;;10.43;7.80;;;;;;;;;;5037985;28;20218;-89
2022/03/24 03:17:15;;;;;;;12.83;8.23;;;;;;;;;;5041364;28;20687;-89
2022/03/24 03:19:43;;;;;;;10.77;8.27;;;;;;;;;;5045266;28;20253;-89
2022/03/24 03:22:10;;;;;;;11.30;8.07;;;;;;;;;;5042638;28;20282;-88
2022/03/24 03:24:40;;;;;;;11.20;8.37;;;;;;;;;;5056818;28;20225;-89
2022/03/24 03:27:08;;;;;;;10.33;7.80;;;;;;;;;;5049068;28;20225;-88
2022/03/24 03:29:35;;;;;;;10.87;8.40;;;;;;;;;;5044834;28;20208;-88
2022/03/24 03:32:04;;;;;;;12.13;8.47;;;;;;;;;;5042135;28;20198;-88
2022/03/24 03:34:31;;;;;;;12.30;8.33;;;;;;;;;;5068209;28;20229;-88
2022/03/24 03:36:59;;;;;;;12.77;8.63;;;;;;;;;;5048596;28;20238;-89
2022/03/24 03:39:27;;;;;;;12.77;8.77;;;;;;;;;;5065892;28;20312;-88
2022/03/24 03:41:55;;;;;;;13.00;7.70;;;;;;;;;;5069085;28;20229;-89
2022/03/24 03:44:23;;;;;;;12.53;8.47;;;;;;;;;;5048119;28;20237;-89
2022/03/24 03:46:51;;;;;;;14.67;8.13;;;;;;;;;;5046061;28;20209;-89
2022/03/24 03:49:20;;;;;;;12.03;8.53;;;;;;;;;;5070529;28;20198;-88
2022/03/24 03:51:48;;;;;;;12.43;8.20;;;;;;;;;;5069883;28;20220;-88
2022/03/24 03:54:15;;;;;;;13.20;7.97;;;;;;;;;;5053862;28;20648;-89
2022/03/24 03:56:42;;;;;;;11.83;8.40;;;;;;;;;;5057005;28;20323;-88
2022/03/24 03:59:09;;;;;;;9.90;6.93;;;;;;;;;;5023923;28;20237;-88
2022/03/24 04:01:37;;;;;;;10.03;7.60;;;;;;;;;;5037334;28;20202;-89
2022/03/24 04:04:05;;;;;;;9.83;7.30;;;;;;;;;;5049983;28;20683;-89
2022/03/24 04:06:34;;;;;;;11.00;8.00;;;;;;;;;;5068955;28;20208;-90
2022/03/24 04:09:01;;;;;;;10.67;7.27;;;;;;;;;;5055256;28;20203;-89
2022/03/24 04:11:29;;;;;;;12.37;8.73;;;;;;;;;;5051918;28;20211;-89
2022/03/24 04:13:56;;;;;;;12.60;9.00;;;;;;;;;;5057877;28;20222;-89
2022/03/24 04:16:23;;;;;;;11.20;7.83;;;;;;;;;;5048828;28;20230;-89
2022/03/24 04:18:51;;;;;;;10.57;8.33;;;;;;;;;;5037669;28;20276;-89
2022/03/24 04:21:19;;;;;;;11.23;8.20;;;;;;;;;;5039070;28;20209;-89
2022/03/24 04:23:49;;;;;;;11.50;8.40;;;;;;;;;;5067277;28;20221;-89
2022/03/24 04:26:16;;;;;;;12.00;7.77;;;;;;;;;;5068541;28;20208;-89
2022/03/24 04:28:44;;;;;;;12.13;7.87;;;;;;;;;;5050973;28;20210;-89
2022/03/24 04:31:11;;;;;;;9.57;7.00;;;;;;;;;;5059538;28;20209;-90
2022/03/24 04:33:38;;;;;;;11.03;7.87;;;;;;;;;;5067818;28;20220;-89
2022/03/24 04:36:08;;;;;;;12.73;8.93;;;;;;;;;;5054574;28;20233;-89
2022/03/24 04:38:35;;;;;;;11.07;8.20;;;;;;;;;;5056015;28;20299;-89
2022/03/24 04:41:04;;;;;;;10.43;7.00;;;;;;;;;;5059811;28;20307;-89
2022/03/24 04:43:32;;;;;;;10.73;7.87;;;;;;;;;;5067665;28;20255;-90
2022/03/24 04:45:59;;;;;;;11.97;8.23;;;;;;;;;;5054860;28;20222;-90
2022/03/24 04:48:27;;;;;;;13.27;8.63;;;;;;;;;;5052417;28;20262;-89
2022/03/24 04:50:54;;;;;;;12.10;7.63;;;;;;;;;;5067560;28;20246;-89
2022/03/24 04:53:22;;;;;;;12.17;8.23;;;;;;;;;;5068205;28;20250;-89
2022/03/24 04:55:49;;;;;;;13.10;9.20;;;;;;;;;;5051703;28;20206;-89
2022/03/24 04:58:17;;;;;;;12.37;8.20;;;;;;;;;;5046465;28;20205;-89
2022/03/24 05:00:45;;;;;;;13.47;8.90;;;;;;;;;;5059879;28;20294;-88
2022/03/24 05:03:12;;;;;;;11.20;8.17;;;;;;;;;;5042037;28;20292;-89
2022/03/24 05:05:39;;;;;;;13.90;8.07;;;;;;;;;;5053860;28;20205;-89
2022/03/24 05:08:07;;;;;;;11.50;8.13;;;;;;;;;;5048312;28;20244;-89
2022/03/24 05:10:34;;;;;;;11.57;7.53;;;;;;;;;;5047728;28;20226;-89
2022/03/24 05:13:01;;;;;;;10.27;7.73;;;;;;;;;;5032596;28;20277;-90
2022/03/24 05:15:30;;;;;;;12.37;8.07;;;;;;;;;;5050252;28;20251;-89
2022/03/24 05:17:57;;;;;;;12.83;7.90;;;;;;;;;;5065847;28;20621;-89
2022/03/24 05:20:24;;;;;;;15.63;9.67;;;;;;;;;;5049299;28;20254;-90
2022/03/24 05:22:52;;;;;;;15.87;8.93;;;;;;;;;;5056296;28;20255;-89
2022/03/24 05:25:19;;;;;;;11.90;8.30;;;;;;;;;;5055004;28;20284;-89
2022/03/24 05:27:46;;;;;;;10.83;6.97;;;;;;;;;;5047678;28;20236;-89
2022/03/24 05:30:14;;;;;;;12.80;8.10;;;;;;;;;;5040181;28;20575;-89
2022/03/24 05:32:43;;;;;;;10.40;7.73;;;;;;;;;;5044603;28;20664;-89
2022/03/24 05:35:10;;;;;;;13.77;8.87;;;;;;;;;;5031245;28;20369;-89
2022/03/24 05:37:37;;;;;;;12.30;7.90;;;;;;;;;;5031990;28;20209;-90
2022/03/24 05:40:05;;;;;;;12.33;7.80;;;;;;;;;;5036203;28;20230;-89
2022/03/24 05:42:32;;;;;;;10.70;7.90;;;;;;;;;;5046132;28;20209;-88
2022/03/24 05:45:00;;;;;;;12.03;7.93;;;;;;;;;;5050479;28;20234;-90
2022/03/24 05:47:27;;;;;;;10.70;7.83;;;;;;;;;;5043043;28;20206;-89
2022/03/24 05:49:56;;;;;;;12.50;8.50;;;;;;;;;;5046277;28;20297;-89
2022/03/24 05:52:23;;;;;;;13.40;8.13;;;;;;;;;;5053390;28;20285;-89
2022/03/24 05:54:50;;;;;;;12.97;8.93;;;;;;;;;;5071227;28;20225;-89
2022/03/24 05:57:17;;;;;;;13.20;9.23;;;;;;;;;;5044978;28;20203;-90
2022/03/24 05:59:45;;;;;;;13.67;8.77;;;;;;;;;;5047353;28;20230;-88
2022/03/24 06:02:13;;;;;;;12.73;9.07;;;;;;;;;;5048095;28;20644;-89
2022/03/24 06:04:42;;;;;;;11.40;8.53;;;;;;;;;;5042215;28;20234;-89
2022/03/24 06:07:11;;;;;;;14.47;8.53;;;;;;;;;;5053932;28;20206;-89
2022/03/24 06:09:39;;;;;;;15.37;8.93;;;;;;;;;;5054097;28;20194;-89
2022/03/24 06:12:08;;;;;;;13.57;8.33;;;;;;;;;;5044070;28;20205;-89
2022/03/24 06:14:36;;;;;;;12.33;9.07;;;;;;;;;;5040674;28;20269;-89
2022/03/24 06:17:04;;;;;;;13.30;8.80;;;;;;;;;;5054170;28;20225;-89
2022/03/24 06:19:31;;;;;;;15.90;13.20;;;;;;;;;;5046095;28;20228;-89
2022/03/24 06:21:58;;;;;;;15.57;11.67;;;;;;;;;;5050854;28;20203;-89
2022/03/24 06:24:27;;;;;;;14.23;10.23;;;;;;;;;;5050302;28;20256;-89
2022/03/24 06:26:54;;;;;;;14.17;9.20;;;;;;;;;;5062819;28;20205;-90
2022/03/24 06:29:22;;;;;;;12.33;8.70;;;;;;;;;;5052693;28;20603;-90
2022/03/24 06:31:49;;;;;;;14.77;10.00;;;;;;;;;;5042985;28;20206;-90
2022/03/24 06:34:17;;;;;;;12.10;9.00;;;;;;;;;;5051691;28;20225;-89
2022/03/24 06:36:44;;;;;;;12.80;9.43;;;;;;;;;;5056519;28;20256;-90
2022/03/24 06:39:12;;;;;;;13.50;9.57;;;;;;;;;;5044007;28;20390;-89
2022/03/24 06:41:40;;;;;;;11.33;8.90;;;;;;;;;;5038810;28;20206;-89
2022/03/24 06:44:08;;;;;;;12.20;9.20;;;;;;;;;;5055218;28;20242;-89
2022/03/24 06:46:35;;;;;;;13.10;8.87;;;;;;;;;;5056822;28;20274;-89
2022/03/24 06:49:03;;;;;;;14.73;9.97;;;;;;;;;;5055320;28;20241;-89
2022/03/24 06:51:30;;;;;;;15.83;9.87;;;;;;;;;;5043769;28;20229;-89
2022/03/24 06:53:58;;;;;;;16.60;9.67;;;;;;;;;;5057423;28;20765;-89
2022/03/24 06:56:25;;;;;;;16.43;9.40;;;;;;;;;;5075608;28;20209;-89
2022/03/24 06:58:54;;;;;;;12.33;9.53;;;;;;;;;;5047031;28;20218;-89
2022/03/24 07:01:21;;;;;;;15.00;10.33;;;;;;;;;;5062507;28;20728;-90
2022/03/24 07:03:49;;;;;;;13.60;9.90;;;;;;;;;;5052035;28;20267;-89
2022/03/24 07:06:16;;;;;;;14.23;9.63;;;;;;;;;;5047209;28;20213;-89
2022/03/24 07:08:43;;;;;;;14.70;9.73;;;;;;;;;;5052937;28;20210;-89
2022/03/24 07:11:11;;;;;;;14.37;10.60;;;;;;;;;;5069539;28;20202;-89
2022/03/24 07:13:38;;;;;;;13.67;10.20;;;;;;;;;;5051701;28;20648;-89
2022/03/24 07:16:07;;;;;;;13.70;9.77;;;;;;;;;;5049780;28;20680;-89
2022/03/24 07:18:34;;;;;;;13.53;10.83;;;;;;;;;;5064327;28;20262;-89
2022/03/24 07:21:01;;;;;;;32.63;23.30;;;;;;;;;;5068987;28;20237;-89
2022/03/24 07:23:29;;;;;;;13.93;9.90;;;;;;;;;;5049147;28;20218;-87
2022/03/24 07:25:56;;;;;;;19.97;13.97;;;;;;;;;;5055374;28;20709;-89
2022/03/24 07:28:23;;;;;;;12.70;9.93;;;;;;;;;;5049378;28;20297;-89
2022/03/24 07:30:51;;;;;;;14.00;10.07;;;;;;;;;;5040503;28;20220;-89
2022/03/24 07:33:20;;;;;;;15.37;10.80;;;;;;;;;;5059901;28;20233;-89
2022/03/24 07:35:48;;;;;;;14.20;11.03;;;;;;;;;;5048978;28;20264;-89
2022/03/24 07:38:16;;;;;;;12.50;9.90;;;;;;;;;;5049371;28;20237;-90
2022/03/24 07:40:43;;;;;;;13.60;9.90;;;;;;;;;;5042757;28;20761;-89
2022/03/24 07:43:11;;;;;;;14.50;10.40;;;;;;;;;;5044194;28;20683;-90
2022/03/24 07:45:38;;;;;;;13.40;10.93;;;;;;;;;;5053068;28;20324;-89
2022/03/24 07:48:10;;;;;;;15.23;10.93;;;;;;;;;;5048647;28;20268;-90
2022/03/24 07:50:39;;;;;;;13.47;10.63;;;;;;;;;;5043705;28;20209;-90
2022/03/24 07:53:21;;;;;;;15.37;10.50;;;;;;;;;;5059757;28;20267;-90
2022/03/24 07:55:49;;;;;;;13.57;10.83;;;;;;;;;;5068472;28;20201;-89
2022/03/24 07:58:18;;;;;;;17.20;11.27;;;;;;;;;;5055278;28;20608;-88
2022/03/24 08:00:46;;;;;;;14.97;10.87;;;;;;;;;;5045007;28;20721;-90
2022/03/24 08:03:14;;;;;;;15.27;10.97;;;;;;;;;;5048660;28;20215;-90
2022/03/24 08:05:43;;;;;;;15.93;10.43;;;;;;;;;;5046720;28;20684;-90
2022/03/24 08:08:11;;;;;;;17.40;11.57;;;;;;;;;;5040960;28;20273;-89
2022/03/24 08:10:39;;;;;;;19.50;12.10;;;;;;;;;;5064041;28;20198;-89
2022/03/24 08:13:07;;;;;;;18.03;12.23;;;;;;;;;;5068002;28;20206;-89
2022/03/24 08:15:36;;;;;;;14.30;11.60;;;;;;;;;;5047962;28;20226;-89
2022/03/24 08:18:05;;;;;;;17.27;11.67;;;;;;;;;;5061532;28;20595;-89
2022/03/24 08:20:32;;;;;;;14.93;11.07;;;;;;;;;;5063244;28;20214;-89
2022/03/24 08:23:01;;;;;;;17.20;12.57;;;;;;;;;;5055357;28;20206;-88
2022/03/24 08:25:28;;;;;;;16.63;12.50;;;;;;;;;;5038369;28;20223;-87
2022/03/24 08:27:56;;;;;;;16.83;11.57;;;;;;;;;;5047035;28;20207;-90
2022/03/24 08:30:23;;;;;;;16.67;11.53;;;;;;;;;;5050981;28;20257;-89
2022/03/24 08:32:51;;;;;;;17.53;12.13;;;;;;;;;;5043525;28;20261;-87
2022/03/24 08:35:18;;;;;;;16.10;12.20;;;;;;;;;;5038013;28;20221;-89
2022/03/24 08:37:48;;;;;;;17.33;12.10;;;;;;;;;;5057881;28;20259;-89
2022/03/24 08:40:17;;;;;;;17.23;11.83;;;;;;;;;;5069166;28;20315;-90
2022/03/24 08:42:45;;;;;;;19.13;12.37;;;;;;;;;;5052568;28;20220;-88
2022/03/24 08:45:13;;;;;;;16.47;11.80;;;;;;;;;;5044193;28;20260;-89
2022/03/24 08:47:41;;;;;;;16.83;12.10;;;;;;;;;;5068315;28;20198;-89
2022/03/24 08:50:10;;;;;;;16.40;12.07;;;;;;;;;;5069367;28;20206;-89
2022/03/24 08:52:46;;;;;;;17.97;12.63;;;;;;;;;;5049727;28;20233;-89
2022/03/24 08:55:14;;;;;;;16.90;11.67;;;;;;;;;;5053213;28;20757;-90
2022/03/24 08:57:43;;;;;;;16.00;12.10;;;;;;;;;;5042613;28;20620;-90
2022/03/24 09:00:13;;;;;;;20.00;12.73;;;;;;;;;;5036761;28;20230;-87
2022/03/24 09:02:41;;;;;;;18.33;12.57;;;;;;;;;;5045407;28;20264;-89
2022/03/24 09:05:09;;;;;;;20.50;12.90;;;;;;;;;;5055783;28;20265;-89
2022/03/24 09:07:36;;;;;;;18.43;12.80;;;;;;;;;;5043694;28;20289;-89
2022/03/24 09:10:05;;;;;;;21.07;12.37;;;;;;;;;;5042936;28;20202;-88
2022/03/24 09:12:32;;;;;;;17.33;12.33;;;;;;;;;;5045858;28;20202;-89
2022/03/24 09:15:05;;;;;;;20.30;12.63;;;;;;;;;;5046515;28;20222;-90
2022/03/24 09:17:33;;;;;;;16.93;12.23;;;;;;;;;;5044102;28;20216;-89
2022/03/24 09:20:00;;;;;;;22.37;13.00;;;;;;;;;;5046145;28;20227;-88
2022/03/24 09:22:28;;;;;;;17.97;12.60;;;;;;;;;;5056069;28;20636;-87
2022/03/24 09:24:55;;;;;;;17.53;12.27;;;;;;;;;;5051986;28;20226;-87
2022/03/24 09:27:23;;;;;;;17.73;13.23;;;;;;;;;;5048009;28;20206;-87
2022/03/24 09:29:50;;;;;;;17.73;12.53;;;;;;;;;;5049392;28;20708;-90
2022/03/24 09:32:19;;;;;;;21.27;14.17;;;;;;;;;;5049148;28;20209;-90
2022/03/24 09:34:46;;;;;;;19.37;13.30;;;;;;;;;;5054218;28;20611;-90
2022/03/24 09:37:17;;;;;;;19.30;14.13;;;;;;;;;;5049682;28;20279;-89
2022/03/24 09:39:44;;;;;;;18.47;13.33;;;;;;;;;;5049086;28;20689;-90
2022/03/24 09:42:12;;;;;;;19.23;13.83;;;;;;;;;;5063498;28;20644;-90
2022/03/24 09:44:39;;;;;;;17.93;13.80;;;;;;;;;;5069550;28;20750;-89
2022/03/24 09:47:06;;;;;;;20.57;12.77;;;;;;;;;;5053238;28;20207;-89
2022/03/24 09:49:35;;;;;;;19.93;14.10;;;;;;;;;;5051292;28;20222;-90
2022/03/24 09:52:03;;;;;;;22.63;14.67;;;;;;;;;;5070212;28;20210;-90
2022/03/24 09:54:30;;;;;;;17.70;12.93;;;;;;;;;;5049080;28;20229;-90
2022/03/24 09:56:57;;;;;;;20.00;13.93;;;;;;;;;;5052348;28;20209;-89
2022/03/24 09:59:25;;;;;;;20.00;13.57;;;;;;;;;;5070751;28;20209;-90
2022/03/24 10:01:52;;;;;;;20.67;14.30;;;;;;;;;;5070531;28;20232;-89
2022/03/24 10:04:19;;;;;;;24.17;13.83;;;;;;;;;;5047108;28;20228;-88
2022/03/24 10:07:00;;;;;;;18.73;13.00;;;;;;;;;;5056066;28;20205;-89
2022/03/24 10:09:37;;;;;;;19.33;13.60;;;;;;;;;;5071119;28;20259;-89
2022/03/24 10:12:05;;;;;;;20.90;13.97;;;;;;;;;;5062709;28;20566;-89
2022/03/24 10:14:32;;;;;;;20.80;12.90;;;;;;;;;;5045234;28;20234;-89
2022/03/24 10:17:07;;;;;;;19.43;13.63;;;;;;;;;;5061159;28;20232;-90
2022/03/24 10:19:34;;;;;;;20.30;13.87;;;;;;;;;;5070287;28;20410;-88
2022/03/24 10:22:08;;;;;;;19.37;13.13;;;;;;;;;;5055825;28;20230;-90
2022/03/24 10:24:40;;;;;;;21.00;13.83;;;;;;;;;;5061839;28;20275;-90
2022/03/24 10:27:07;;;;;;;21.27;14.00;;;;;;;;;;5050633;28;20229;-89
2022/03/24 10:29:35;;;;;;;24.50;14.43;;;;;;;;;;5050565;28;20210;-89
2022/03/24 10:32:04;;;;;;;20.63;13.90;;;;;;;;;;5047766;28;20499;-89
2022/03/24 10:34:32;;;;;;;20.80;14.30;;;;;;;;;;5048309;28;20230;-90
2022/03/24 10:37:03;;;;;;;20.43;13.60;;;;;;;;;;5050072;28;20579;-90
2022/03/24 10:39:32;;;;;;;18.80;13.50;;;;;;;;;;5040077;28;20247;-89
2022/03/24 10:42:11;;;;;;;20.60;14.27;;;;;;;;;;5060418;28;20278;-90
2022/03/24 10:44:39;;;;;;;21.87;13.13;;;;;;;;;;5053929;28;20225;-89
2022/03/24 10:47:06;;;;;;;19.73;13.67;;;;;;;;;;5050175;28;20332;-90
2022/03/24 10:49:33;;;;;;;22.30;13.70;;;;;;;;;;5034689;28;20206;-90
2022/03/24 10:52:02;;;;;;;20.63;14.57;;;;;;;;;;5056478;28;20274;-88
2022/03/24 10:54:41;;;;;;;17.37;13.30;;;;;;;;;;5049587;28;20234;-89
2022/03/24 10:57:10;;;;;;;19.70;12.63;;;;;;;;;;5045115;28;20233;-89
2022/03/24 10:59:40;;;;;;;17.63;12.53;;;;;;;;;;5052874;28;20218;-89
2022/03/24 11:02:07;;;;;;;20.83;12.37;;;;;;;;;;5069543;28;20222;-89
2022/03/24 11:04:34;;;;;;;14.93;11.33;;;;;;;;;;5069605;28;20312;-89
2022/03/24 11:07:02;;;;;;;19.67;12.27;;;;;;;;;;5050246;28;20213;-89
2022/03/24 11:09:30;;;;;;;15.83;11.60;;;;;;;;;;5055675;28;20259;-89
2022/03/24 11:12:15;;;;;;;17.83;11.60;;;;;;;;;;5051503;28;20255;-88
2022/03/24 11:14:45;;;;;;;20.33;13.13;;;;;;;;;;5040414;28;20246;-90
2022/03/24 11:17:13;;;;;;;20.73;13.87;;;;;;;;;;5054206;28;20233;-89
2022/03/24 11:19:40;;;;;;;17.50;11.67;;;;;;;;;;5069540;28;20207;-88
2022/03/24 11:22:13;;;;;;;19.07;12.97;;;;;;;;;;5063415;28;20347;-90
2022/03/24 11:24:40;;;;;;;19.90;13.37;;;;;;;;;;5042330;28;20321;-89
2022/03/24 11:27:08;;;;;;;22.53;13.07;;;;;;;;;;5064559;28;20201;-88
2022/03/24 11:29:37;;;;;;;17.17;12.47;;;;;;;;;;5071251;28;20237;-89
2022/03/24 11:32:06;;;;;;;18.20;13.03;;;;;;;;;;5054806;28;20198;-89
2022/03/24 11:34:35;;;;;;;17.90;12.53;;;;;;;;;;5037991;28;20226;-89
2022/03/24 11:37:03;;;;;;;17.97;12.63;;;;;;;;;;5066761;28;20247;-88
2022/03/24 11:39:30;;;;;;;18.77;12.30;;;;;;;;;;5060352;28;20689;-89
2022/03/24 11:41:58;;;;;;;20.17;12.87;;;;;;;;;;5044988;28;20226;-89
2022/03/24 11:44:31;;;;;;;15.70;11.97;;;;;;;;;;5054138;28;20229;-89
2022/03/24 11:47:00;;;;;;;17.60;12.70;;;;;;;;;;5069217;28;20229;-89
2022/03/24 11:49:29;;;;;;;20.53;12.23;;;;;;;;;;5056939;28;20240;-89
2022/03/24 11:52:17;;;;;;;19.43;12.00;;;;;;;;;;5050057;28;20264;-90
2022/03/24 11:54:52;;;;;;;18.73;11.90;;;;;;;;;;5037503;28;20261;-89
2022/03/24 11:57:26;;;;;;;16.03;11.27;;;;;;;;;;5044552;28;20224;-90
2022/03/24 12:00:09;;;;;;;18.50;12.43;;;;;;;;;;5052686;28;20256;-90
2022/03/24 12:02:36;;;;;;;18.27;11.07;;;;;;;;;;5044031;28;20251;-91
2022/03/24 12:05:05;;;;;;;20.70;12.23;;;;;;;;;;5049123;28;20222;-90
2022/03/24 12:07:33;;;;;;;21.27;12.07;;;;;;;;;;5049623;28;20206;-89
2022/03/24 12:10:01;;;;;;;18.70;11.87;;;;;;;;;;5043350;28;20202;-89
2022/03/24 12:12:29;;;;;;;16.03;11.67;;;;;;;;;;5048858;28;20206;-89
2022/03/24 12:14:58;;;;;;;16.63;11.60;;;;;;;;;;5050765;28;20225;-90
2022/03/24 12:17:30;;;;;;;17.50;11.10;;;;;;;;;;5049864;28;20661;-90
2022/03/24 12:19:58;;;;;;;16.33;11.10;;;;;;;;;;5045596;28;20229;-90
2022/03/24 12:22:35;;;;;;;20.00;12.93;;;;;;;;;;5047892;28;20279;-90
2022/03/24 12:25:25;;;;;;;15.80;11.57;;;;;;;;;;5049314;28;20225;-90
2022/03/24 12:28:10;;;;;;;17.40;11.90;;;;;;;;;;5044540;28;20261;-90
2022/03/24 12:30:55;;;;;;;15.43;9.53;;;;;;;;;;5037240;28;20197;-90
2022/03/24 12:33:33;;;;;;;16.43;11.40;;;;;;;;;;5046564;28;20209;-90
2022/03/24 12:36:00;;;;;;;15.63;10.67;;;;;;;;;;5045232;28;20671;-90
2022/03/24 12:38:42;;;;;;;16.77;11.40;;;;;;;;;;5046580;28;20265;-91
2022/03/24 12:41:17;;;;;;;16.77;11.07;;;;;;;;;;5051564;28;20220;-90
2022/03/24 12:43:46;;;;;;;17.33;12.03;;;;;;;;;;5052867;28;20315;-90
2022/03/24 12:46:20;;;;;;;15.80;10.80;;;;;;;;;;5052588;28;20256;-92
2022/03/24 12:48:48;;;;;;;16.70;12.10;;;;;;;;;;5043150;28;20206;-91
2022/03/24 12:51:19;;;;;;;17.10;12.13;;;;;;;;;;5057043;28;20227;-91
2022/03/24 12:53:52;;;;;;;18.23;12.20;;;;;;;;;;5055017;28;20287;-91
2022/03/24 12:56:24;;;;;;;14.00;10.50;;;;;;;;;;5051277;28;20216;-90
2022/03/24 12:58:55;;;;;;;19.23;11.13;;;;;;;;;;5059528;28;20209;-92
2022/03/24 13:01:23;;;;;;;16.83;10.97;;;;;;;;;;5055688;28;20279;-91
2022/03/24 13:03:57;;;;;;;17.40;10.70;;;;;;;;;;5044160;28;20226;-90
2022/03/24 13:06:25;;;;;;;16.30;11.13;;;;;;;;;;5052034;28;20368;-91
2022/03/24 13:09:11;;;;;;;15.90;11.33;;;;;;;;;;5072938;28;20205;-91
2022/03/24 13:11:50;;;;;;;14.23;11.27;;;;;;;;;;5049228;28;20202;-91
2022/03/24 13:14:19;;;;;;;17.40;12.27;;;;;;;;;;5048183;28;20256;-92
2022/03/24 13:16:59;;;;;;;14.73;11.50;;;;;;;;;;5064317;28;20210;-92
2022/03/24 13:19:26;;;;;;;15.13;11.37;;;;;;;;;;5052250;28;20567;-91
2022/03/24 13:21:53;;;;;;;14.47;11.03;;;;;;;;;;5050300;28;20630;-92
2022/03/24 13:24:21;;;;;;;17.03;11.23;;;;;;;;;;5058375;28;20244;-91
2022/03/24 13:26:59;;;;;;;14.37;10.27;;;;;;;;;;5054835;28;20202;-91
2022/03/24 13:29:36;;;;;;;14.23;9.90;;;;;;;;;;5052072;28;20335;-92
2022/03/24 13:32:10;;;;;;;14.80;10.07;;;;;;;;;;5049688;28;20275;-90
2022/03/24 13:34:38;;;;;;;13.13;9.73;;;;;;;;;;5052061;28;20270;-91
2022/03/24 13:37:12;;;;;;;14.63;11.23;;;;;;;;;;5042559;28;20202;-91
2022/03/24 13:39:39;;;;;;;15.70;10.20;;;;;;;;;;5038173;28;20224;-91
2022/03/24 13:42:12;;;;;;;14.47;10.67;;;;;;;;;;5045778;28;20280;-90
2022/03/24 13:44:39;;;;;;;13.50;10.47;;;;;;;;;;5045022;28;20296;-92
2022/03/24 13:47:08;;;;;;;14.30;10.33;;;;;;;;;;5042597;28;20622;-92
2022/03/24 13:49:35;;;;;;;12.93;10.30;;;;;;;;;;5043198;28;20213;-92
2022/03/24 13:52:03;;;;;;;13.23;10.30;;;;;;;;;;5050412;28;20246;-92
2022/03/24 13:54:30;;;;;;;14.53;10.20;;;;;;;;;;5044153;28;20213;-91
2022/03/24 13:56:58;;;;;;;17.17;10.00;;;;;;;;;;5046075;28;20209;-91
2022/03/24 13:59:31;;;;;;;14.03;9.90;;;;;;;;;;5049615;28;20255;-91
2022/03/24 14:01:59;;;;;;;17.63;11.37;;;;;;;;;;5045594;28;20301;-90
2022/03/24 14:04:27;;;;;;;14.93;10.87;;;;;;;;;;5043919;28;20280;-91
2022/03/24 14:07:05;;;;;;;17.00;10.87;;;;;;;;;;5047792;28;20281;-91
2022/03/24 14:09:32;;;;;;;14.73;10.83;;;;;;;;;;5053957;28;20212;-91
2022/03/24 14:12:03;;;;;;;15.87;11.20;;;;;;;;;;5045132;28;20733;-91
2022/03/24 14:14:32;;;;;;;13.87;9.83;;;;;;;;;;5047626;28;20222;-90
2022/03/24 14:17:00;;;;;;;13.20;9.90;;;;;;;;;;5056413;28;20296;-92
2022/03/24 14:19:27;;;;;;;16.23;9.77;;;;;;;;;;5049462;28;20268;-91
2022/03/24 14:22:04;;;;;;;12.27;9.47;;;;;;;;;;5044235;28;20643;-91
2022/03/24 14:24:36;;;;;;;14.50;10.63;;;;;;;;;;5042456;28;20719;-91
2022/03/24 14:27:05;;;;;;;13.33;9.23;;;;;;;;;;5058377;28;20709;-91
2022/03/24 14:29:34;;;;;;;14.57;9.20;;;;;;;;;;5036951;28;20232;-91
2022/03/24 14:32:11;;;;;;;14.70;9.77;;;;;;;;;;5053558;28;20202;-91
2022/03/24 14:34:38;;;;;;;13.17;9.33;;;;;;;;;;5051003;28;20683;-92